Seaexpress — 9HA3260 — position and weather

sailwx.info

Track history (hours):
 
Tides and Currents Weather Stations Pressure Air Temp Water Temp Dewpoint Dewpoint Depression Visibility Wind Speed Wind Dir Waves Ship Positions

Seaexpress

Last reported at 2018-Jan-18 16:28 UTC. Time now 2018-Jan-19 06:00 UTC.
Position N 37°53' E 025°43'.

Length 180 m; draft 7 m.

Type: Tanker. MMSI: 229353000.

Date/timePositionNaut miles runAvg speedWind from/ knotsBaromVisibWave heightAir tempDewpointWater temp
2018-Jan-18 16:28N 37°53' E 025°43'3 7.2
2018-Jan-18 16:00N 37°49' E 025°43'3 6.4
2018-Jan-18 15:30N 37°46' E 025°44'3 6.5
2018-Jan-18 15:00N 37°43' E 025°46'3 5.9
2018-Jan-18 14:30N 37°41' E 025°47'3 5.3
2018-Jan-18 13:53N 37°38' E 025°49'2 4.1
2018-Jan-18 13:30N 37°37' E 025°51'2 3.4
2018-Jan-18 12:59N 37°35' E 025°52'2 3.4
2018-Jan-18 12:24N 37°33' E 025°52'1 2.3
2018-Jan-18 12:00N 37°32' E 025°52'1 2.6
2018-Jan-18 11:30N 37°31' E 025°52'1 2.5
2018-Jan-18 11:00N 37°30' E 025°53'1 3.0
2018-Jan-18 10:30N 37°28' E 025°53'2 3.3
2018-Jan-18 10:00N 37°27' E 025°55'2 3.3
2018-Jan-18 09:30N 37°26' E 025°55'3 6.0
2018-Jan-18 09:00N 37°23' E 025°57'3 7.0
2018-Jan-18 08:30N 37°20' E 025°59'4 8.4
2018-Jan-18 08:00N 37°16' E 026°01'4 8.9
2018-Jan-18 07:30N 37°12' E 026°04'5 9.5
2018-Jan-18 07:00N 37°08' E 026°07'5 9.8
2018-Jan-18 06:30N 37°04' E 026°10'510.7
2018-Jan-18 06:00N 36°59' E 026°12'5 9.6
2018-Jan-18 05:30N 36°55' E 026°15'5 9.6
2018-Jan-18 05:00N 36°52' E 026°20'5 9.3
2018-Jan-18 04:30N 36°49' E 026°25'5 9.9
2018-Jan-18 04:00N 36°45' E 026°28'5 9.7
2018-Jan-18 03:30N 36°41' E 026°32'611.7
2018-Jan-18 03:00N 36°37' E 026°36'510.9
2018-Jan-18 02:30N 36°33' E 026°41'510.6
2018-Jan-18 02:00N 36°29' E 026°45'710.5
2018-Jan-18 01:23N 36°24' E 026°51'410.2
2018-Jan-18 00:59N 36°21' E 026°54'  
Track history (hours):
 
Tides and Currents Weather Stations Pressure Air Temp Water Temp Dewpoint Dewpoint Depression Visibility Wind Speed Wind Dir Waves Ship Positions

Seaexpress

Last reported at 2018-Jan-18 16:28 UTC. Time now 2018-Jan-19 06:00 UTC.
Position N 37°53' E 025°43'.

Length 180 m; draft 7 m.

Type: Tanker. MMSI: 229353000.

Date/timePositionNaut miles runAvg speedWind from/ knotsBaromVisibWave heightAir tempDewpointWater temp
2018-Jan-18 16:28N 37°53' E 025°43'3 7.2
2018-Jan-18 16:00N 37°49' E 025°43'3 6.4
2018-Jan-18 15:30N 37°46' E 025°44'3 6.5
2018-Jan-18 15:00N 37°43' E 025°46'3 5.9
2018-Jan-18 14:30N 37°41' E 025°47'3 5.3
2018-Jan-18 13:53N 37°38' E 025°49'2 4.1
2018-Jan-18 13:30N 37°37' E 025°51'2 3.4
2018-Jan-18 12:59N 37°35' E 025°52'2 3.4
2018-Jan-18 12:24N 37°33' E 025°52'1 2.3
2018-Jan-18 12:00N 37°32' E 025°52'1 2.6
2018-Jan-18 11:30N 37°31' E 025°52'1 2.5
2018-Jan-18 11:00N 37°30' E 025°53'1 3.0
2018-Jan-18 10:30N 37°28' E 025°53'2 3.3
2018-Jan-18 10:00N 37°27' E 025°55'2 3.3
2018-Jan-18 09:30N 37°26' E 025°55'3 6.0
2018-Jan-18 09:00N 37°23' E 025°57'3 7.0
2018-Jan-18 08:30N 37°20' E 025°59'4 8.4
2018-Jan-18 08:00N 37°16' E 026°01'4 8.9
2018-Jan-18 07:30N 37°12' E 026°04'5 9.5
2018-Jan-18 07:00N 37°08' E 026°07'5 9.8
2018-Jan-18 06:30N 37°04' E 026°10'510.7
2018-Jan-18 06:00N 36°59' E 026°12'5 9.6
2018-Jan-18 05:30N 36°55' E 026°15'5 9.6
2018-Jan-18 05:00N 36°52' E 026°20'5 9.3
2018-Jan-18 04:30N 36°49' E 026°25'5 9.9
2018-Jan-18 04:00N 36°45' E 026°28'5 9.7
2018-Jan-18 03:30N 36°41' E 026°32'611.7
2018-Jan-18 03:00N 36°37' E 026°36'510.9
2018-Jan-18 02:30N 36°33' E 026°41'510.6
2018-Jan-18 02:00N 36°29' E 026°45'710.5
2018-Jan-18 01:23N 36°24' E 026°51'410.2
2018-Jan-18 00:59N 36°21' E 026°54'  

Dump ship's entire track history